New Holstein, WI

2:58 PM CST on December 21, 2014 (GMT -0600)
Sheboygan County Memorial | Change Station
CLOSE
Current Station
Airport
Location: Sheboygan,
Elevation: 748 ft
Nearby Weather Stations

Elev 748 ft 43.77 °N, 87.85 °W | Updated 20 minutes ago

Overcast
Overcast
35 °F
Feels Like 26 °F
N
13
Wind Variable Wind from South

Today
High -- | Low -- °F
--% Chance of Precip.
Yesterday
High -- | Low -- °F
Precip. -- in
7:23 AM 4:17 PM
Waning Crescent, 0% visible
Pressure 30.04 in
Visibility 6.0 miles
Clouds Mostly Cloudy 2800 ft
Overcast 3900 ft
Windchill 26 °F
Dew Point 31 °F
Humidity 85%
Rainfall 0.00 in
Snow Depth Not available.
UV 0 out of 12
Pollen .10 out of 12
Air Quality Not available.
Flu Activity Not available.
SPECI KSBM 212038Z AUTO 18011KT 6SM BR BKN028 OVC039 02/M01 A3004 RMK AO2 T00171006

More Conditions Fewer Conditions

Pressure 30.04 in
Visibility 6.0 miles
Clouds Mostly Cloudy 2800 ft
Overcast 3900 ft
Windchill 26 °F
Dew Point 31 °F
Humidity 85%
Rainfall 0.00 in
Snow Depth Not available.
UV 0 out of 12
Pollen .10 out of 12
Air Quality Not available.
Flu Activity Not available.
SPECI KSBM 212038Z AUTO 18011KT 6SM BR BKN028 OVC039 02/M01 A3004 RMK AO2 T00171006

More Conditions Fewer Conditions

10-Day Weather Forecast

Almanac

Astronomy

Dec. 21, 2014 Rise Set
Actual Time
Civil Twilight
Nautical Twilight
Astronomical Twilight
Moon
Length of Visible Light
Length of Day
Tomorrow will be .
, % of the Moon is Illuminated

Today's Extremes

State Highs State Lows

Community

WunderPhotos

Upload Photos

1,779,471 photos uploaded!

WunderBlogs® & News

Nearby

Air Quality

  Air Quality AQ Index Pollutant
Not available.

Snow Depth

Station Depth Elevation

Earthquake Activity

City Distance Mag. Time & Date
Minimum magnitude displayed is 2.5.

Coastal Water Temperatures

Place Temperature

Nearby Weather Stations